sensor_id;sensor_type;location;lat;lon;timestamp;pressure;altitude;pressure_sealevel;temperature
12875;BMP180;6505;51.114;13.128;2023-04-03T00:01:19;100610.00;;;12.10
12875;BMP180;6505;51.114;13.128;2023-04-03T00:03:47;100610.00;;;12.10
12875;BMP180;6505;51.114;13.128;2023-04-03T00:06:17;100605.00;;;12.10
12875;BMP180;6505;51.114;13.128;2023-04-03T00:08:45;100607.00;;;12.00
12875;BMP180;6505;51.114;13.128;2023-04-03T00:11:13;100613.00;;;12.00
12875;BMP180;6505;51.114;13.128;2023-04-03T00:13:44;100616.00;;;12.00
12875;BMP180;6505;51.114;13.128;2023-04-03T00:16:12;100605.00;;;12.00
12875;BMP180;6505;51.114;13.128;2023-04-03T00:18:42;100609.00;;;12.00
12875;BMP180;6505;51.114;13.128;2023-04-03T00:21:13;100616.00;;;11.90
12875;BMP180;6505;51.114;13.128;2023-04-03T00:23:41;100611.00;;;11.90
12875;BMP180;6505;51.114;13.128;2023-04-03T00:26:09;100617.00;;;11.90
12875;BMP180;6505;51.114;13.128;2023-04-03T00:28:39;100606.00;;;11.90
12875;BMP180;6505;51.114;13.128;2023-04-03T00:31:08;100616.00;;;11.90
12875;BMP180;6505;51.114;13.128;2023-04-03T00:33:37;100611.00;;;11.90
12875;BMP180;6505;51.114;13.128;2023-04-03T00:36:09;100610.00;;;11.80
12875;BMP180;6505;51.114;13.128;2023-04-03T00:38:38;100616.00;;;11.80
12875;BMP180;6505;51.114;13.128;2023-04-03T00:41:07;100613.00;;;11.80
12875;BMP180;6505;51.114;13.128;2023-04-03T00:43:35;100613.00;;;11.80
12875;BMP180;6505;51.114;13.128;2023-04-03T00:46:03;100619.00;;;11.80
12875;BMP180;6505;51.114;13.128;2023-04-03T00:48:37;100624.00;;;11.70
12875;BMP180;6505;51.114;13.128;2023-04-03T00:51:12;100624.00;;;11.70
12875;BMP180;6505;51.114;13.128;2023-04-03T00:53:46;100628.00;;;11.70
12875;BMP180;6505;51.114;13.128;2023-04-03T00:56:18;100623.00;;;11.70
12875;BMP180;6505;51.114;13.128;2023-04-03T00:58:54;100623.00;;;11.60
12875;BMP180;6505;51.114;13.128;2023-04-03T01:01:26;100626.00;;;11.60
12875;BMP180;6505;51.114;13.128;2023-04-03T01:03:55;100632.00;;;11.60
12875;BMP180;6505;51.114;13.128;2023-04-03T01:06:29;100623.00;;;11.60
12875;BMP180;6505;51.114;13.128;2023-04-03T01:09:05;100621.00;;;11.60
12875;BMP180;6505;51.114;13.128;2023-04-03T01:11:33;100623.00;;;11.60
12875;BMP180;6505;51.114;13.128;2023-04-03T01:14:01;100625.00;;;11.50
12875;BMP180;6505;51.114;13.128;2023-04-03T01:16:29;100614.00;;;11.50
12875;BMP180;6505;51.114;13.128;2023-04-03T01:19:01;100622.00;;;11.50
12875;BMP180;6505;51.114;13.128;2023-04-03T01:22:00;100622.00;;;11.50
12875;BMP180;6505;51.114;13.128;2023-04-03T01:24:35;100627.00;;;11.50
12875;BMP180;6505;51.114;13.128;2023-04-03T01:27:10;100629.00;;;11.40
12875;BMP180;6505;51.114;13.128;2023-04-03T01:29:40;100631.00;;;11.50
12875;BMP180;6505;51.114;13.128;2023-04-03T01:32:11;100635.00;;;11.40
12875;BMP180;6505;51.114;13.128;2023-04-03T01:34:41;100638.00;;;11.40
12875;BMP180;6505;51.114;13.128;2023-04-03T01:37:09;100646.00;;;11.40
12875;BMP180;6505;51.114;13.128;2023-04-03T01:39:37;100644.00;;;11.40
12875;BMP180;6505;51.114;13.128;2023-04-03T01:42:05;100646.00;;;11.40
12875;BMP180;6505;51.114;13.128;2023-04-03T01:44:38;100659.00;;;11.40
12875;BMP180;6505;51.114;13.128;2023-04-03T01:47:06;100660.00;;;11.40
12875;BMP180;6505;51.114;13.128;2023-04-03T01:49:36;100664.00;;;11.40
12875;BMP180;6505;51.114;13.128;2023-04-03T01:52:04;100661.00;;;11.40
12875;BMP180;6505;51.114;13.128;2023-04-03T01:54:32;100663.00;;;11.40
12875;BMP180;6505;51.114;13.128;2023-04-03T01:57:01;100665.00;;;11.40
12875;BMP180;6505;51.114;13.128;2023-04-03T01:59:29;100651.00;;;11.30
12875;BMP180;6505;51.114;13.128;2023-04-03T02:01:58;100667.00;;;11.30
12875;BMP180;6505;51.114;13.128;2023-04-03T02:04:26;100669.00;;;11.30
12875;BMP180;6505;51.114;13.128;2023-04-03T02:06:55;100671.00;;;11.30
12875;BMP180;6505;51.114;13.128;2023-04-03T02:09:23;100663.00;;;11.30
12875;BMP180;6505;51.114;13.128;2023-04-03T02:11:52;100669.00;;;11.30
12875;BMP180;6505;51.114;13.128;2023-04-03T02:14:20;100665.00;;;11.30
12875;BMP180;6505;51.114;13.128;2023-04-03T02:16:48;100665.00;;;11.20
12875;BMP180;6505;51.114;13.128;2023-04-03T02:19:16;100667.00;;;11.20
12875;BMP180;6505;51.114;13.128;2023-04-03T02:21:44;100678.00;;;11.20
12875;BMP180;6505;51.114;13.128;2023-04-03T02:24:15;100677.00;;;11.20
12875;BMP180;6505;51.114;13.128;2023-04-03T02:26:43;100668.00;;;11.20
12875;BMP180;6505;51.114;13.128;2023-04-03T02:29:11;100684.00;;;11.20
12875;BMP180;6505;51.114;13.128;2023-04-03T02:31:39;100672.00;;;11.20
12875;BMP180;6505;51.114;13.128;2023-04-03T02:34:07;100680.00;;;11.10
12875;BMP180;6505;51.114;13.128;2023-04-03T02:36:36;100676.00;;;11.10
12875;BMP180;6505;51.114;13.128;2023-04-03T02:39:07;100664.00;;;11.10
12875;BMP180;6505;51.114;13.128;2023-04-03T02:41:37;100696.00;;;11.10
12875;BMP180;6505;51.114;13.128;2023-04-03T02:44:11;100682.00;;;11.00
12875;BMP180;6505;51.114;13.128;2023-04-03T02:46:40;100696.00;;;11.00
12875;BMP180;6505;51.114;13.128;2023-04-03T02:49:08;100705.00;;;11.00
12875;BMP180;6505;51.114;13.128;2023-04-03T02:51:36;100692.00;;;11.00
12875;BMP180;6505;51.114;13.128;2023-04-03T02:54:04;100701.00;;;11.00
12875;BMP180;6505;51.114;13.128;2023-04-03T02:56:36;100688.00;;;11.00
12875;BMP180;6505;51.114;13.128;2023-04-03T02:59:04;100705.00;;;11.00
12875;BMP180;6505;51.114;13.128;2023-04-03T03:01:34;100702.00;;;11.00
12875;BMP180;6505;51.114;13.128;2023-04-03T03:04:03;100713.00;;;11.00
12875;BMP180;6505;51.114;13.128;2023-04-03T03:06:31;100705.00;;;10.90
12875;BMP180;6505;51.114;13.128;2023-04-03T03:08:59;100710.00;;;10.90
12875;BMP180;6505;51.114;13.128;2023-04-03T03:11:27;100702.00;;;10.90
12875;BMP180;6505;51.114;13.128;2023-04-03T03:13:57;100703.00;;;10.90
12875;BMP180;6505;51.114;13.128;2023-04-03T03:16:25;100692.00;;;10.90
12875;BMP180;6505;51.114;13.128;2023-04-03T03:18:53;100691.00;;;10.90
12875;BMP180;6505;51.114;13.128;2023-04-03T03:21:23;100705.00;;;10.80
12875;BMP180;6505;51.114;13.128;2023-04-03T03:23:51;100710.00;;;10.80
12875;BMP180;6505;51.114;13.128;2023-04-03T03:26:19;100707.00;;;10.80
12875;BMP180;6505;51.114;13.128;2023-04-03T03:28:47;100716.00;;;10.80
12875;BMP180;6505;51.114;13.128;2023-04-03T03:31:17;100714.00;;;10.80
12875;BMP180;6505;51.114;13.128;2023-04-03T03:33:45;100713.00;;;10.80
12875;BMP180;6505;51.114;13.128;2023-04-03T03:36:13;100705.00;;;10.80
12875;BMP180;6505;51.114;13.128;2023-04-03T03:38:41;100717.00;;;10.80
12875;BMP180;6505;51.114;13.128;2023-04-03T03:41:09;100722.00;;;10.80
12875;BMP180;6505;51.114;13.128;2023-04-03T03:43:38;100719.00;;;10.70
12875;BMP180;6505;51.114;13.128;2023-04-03T03:46:07;100723.00;;;10.70
12875;BMP180;6505;51.114;13.128;2023-04-03T03:48:36;100728.00;;;10.70
12875;BMP180;6505;51.114;13.128;2023-04-03T03:51:04;100716.00;;;10.70
12875;BMP180;6505;51.114;13.128;2023-04-03T03:53:36;100734.00;;;10.70
12875;BMP180;6505;51.114;13.128;2023-04-03T03:56:07;100730.00;;;10.70
12875;BMP180;6505;51.114;13.128;2023-04-03T03:58:38;100737.00;;;10.70
12875;BMP180;6505;51.114;13.128;2023-04-03T04:01:07;100738.00;;;10.60
12875;BMP180;6505;51.114;13.128;2023-04-03T04:03:42;100733.00;;;10.60
12875;BMP180;6505;51.114;13.128;2023-04-03T04:06:14;100738.00;;;10.60
12875;BMP180;6505;51.114;13.128;2023-04-03T04:08:42;100739.00;;;10.60
12875;BMP180;6505;51.114;13.128;2023-04-03T04:11:12;100746.00;;;10.60
12875;BMP180;6505;51.114;13.128;2023-04-03T04:13:41;100737.00;;;10.60
12875;BMP180;6505;51.114;13.128;2023-04-03T04:16:11;100744.00;;;10.60
12875;BMP180;6505;51.114;13.128;2023-04-03T04:18:39;100748.00;;;10.60
12875;BMP180;6505;51.114;13.128;2023-04-03T04:21:08;100751.00;;;10.50
12875;BMP180;6505;51.114;13.128;2023-04-03T04:23:38;100752.00;;;10.50
12875;BMP180;6505;51.114;13.128;2023-04-03T04:26:06;100748.00;;;10.50
12875;BMP180;6505;51.114;13.128;2023-04-03T04:28:37;100752.00;;;10.50
12875;BMP180;6505;51.114;13.128;2023-04-03T04:31:05;100749.00;;;10.50
12875;BMP180;6505;51.114;13.128;2023-04-03T04:33:33;100751.00;;;10.50
12875;BMP180;6505;51.114;13.128;2023-04-03T04:36:04;100747.00;;;10.50
12875;BMP180;6505;51.114;13.128;2023-04-03T04:38:34;100759.00;;;10.50
12875;BMP180;6505;51.114;13.128;2023-04-03T04:41:02;100767.00;;;10.40
12875;BMP180;6505;51.114;13.128;2023-04-03T04:43:31;100761.00;;;10.40
12875;BMP180;6505;51.114;13.128;2023-04-03T04:46:04;100763.00;;;10.40
12875;BMP180;6505;51.114;13.128;2023-04-03T04:48:38;100767.00;;;10.40
12875;BMP180;6505;51.114;13.128;2023-04-03T04:51:07;100752.00;;;10.40
12875;BMP180;6505;51.114;13.128;2023-04-03T04:53:38;100771.00;;;10.40
12875;BMP180;6505;51.114;13.128;2023-04-03T04:56:08;100775.00;;;10.40
12875;BMP180;6505;51.114;13.128;2023-04-03T04:58:38;100781.00;;;10.40
12875;BMP180;6505;51.114;13.128;2023-04-03T05:01:10;100771.00;;;10.30
12875;BMP180;6505;51.114;13.128;2023-04-03T05:03:47;100773.00;;;10.30
12875;BMP180;6505;51.114;13.128;2023-04-03T05:06:16;100788.00;;;10.30
12875;BMP180;6505;51.114;13.128;2023-04-03T05:08:45;100779.00;;;10.30
12875;BMP180;6505;51.114;13.128;2023-04-03T05:11:14;100786.00;;;10.30
12875;BMP180;6505;51.114;13.128;2023-04-03T05:13:43;100786.00;;;10.30
12875;BMP180;6505;51.114;13.128;2023-04-03T05:16:12;100788.00;;;10.30
12875;BMP180;6505;51.114;13.128;2023-04-03T05:18:41;100782.00;;;10.30
12875;BMP180;6505;51.114;13.128;2023-04-03T05:21:16;100789.00;;;10.30
12875;BMP180;6505;51.114;13.128;2023-04-03T05:23:48;100790.00;;;10.30
12875;BMP180;6505;51.114;13.128;2023-04-03T05:26:16;100794.00;;;10.30
12875;BMP180;6505;51.114;13.128;2023-04-03T05:28:46;100796.00;;;10.30
12875;BMP180;6505;51.114;13.128;2023-04-03T05:31:15;100797.00;;;10.30
12875;BMP180;6505;51.114;13.128;2023-04-03T05:33:43;100795.00;;;10.30
12875;BMP180;6505;51.114;13.128;2023-04-03T05:36:16;100798.00;;;10.30
12875;BMP180;6505;51.114;13.128;2023-04-03T05:38:49;100797.00;;;10.30
12875;BMP180;6505;51.114;13.128;2023-04-03T05:41:19;100799.00;;;10.30
12875;BMP180;6505;51.114;13.128;2023-04-03T05:43:48;100804.00;;;10.30
12875;BMP180;6505;51.114;13.128;2023-04-03T05:46:19;100793.00;;;10.30
12875;BMP180;6505;51.114;13.128;2023-04-03T05:48:52;100819.00;;;10.30
12875;BMP180;6505;51.114;13.128;2023-04-03T05:51:26;100803.00;;;10.20
12875;BMP180;6505;51.114;13.128;2023-04-03T05:54:08;100803.00;;;10.20
12875;BMP180;6505;51.114;13.128;2023-04-03T05:56:37;100805.00;;;10.20
12875;BMP180;6505;51.114;13.128;2023-04-03T05:59:05;100817.00;;;10.20
12875;BMP180;6505;51.114;13.128;2023-04-03T06:01:34;100825.00;;;10.20
12875;BMP180;6505;51.114;13.128;2023-04-03T06:04:02;100826.00;;;10.20
12875;BMP180;6505;51.114;13.128;2023-04-03T06:06:47;100828.00;;;10.20
12875;BMP180;6505;51.114;13.128;2023-04-03T06:09:19;100827.00;;;10.20
12875;BMP180;6505;51.114;13.128;2023-04-03T06:11:47;100827.00;;;10.20
12875;BMP180;6505;51.114;13.128;2023-04-03T06:14:16;100832.00;;;10.20
12875;BMP180;6505;51.114;13.128;2023-04-03T06:16:45;100815.00;;;10.20
12875;BMP180;6505;51.114;13.128;2023-04-03T06:19:13;100817.00;;;10.20
12875;BMP180;6505;51.114;13.128;2023-04-03T06:21:47;100836.00;;;10.20
12875;BMP180;6505;51.114;13.128;2023-04-03T06:24:18;100844.00;;;10.20
12875;BMP180;6505;51.114;13.128;2023-04-03T06:26:47;100839.00;;;10.20
12875;BMP180;6505;51.114;13.128;2023-04-03T06:29:15;100838.00;;;10.30
12875;BMP180;6505;51.114;13.128;2023-04-03T06:31:43;100819.00;;;10.30
12875;BMP180;6505;51.114;13.128;2023-04-03T06:34:11;100850.00;;;10.30
12875;BMP180;6505;51.114;13.128;2023-04-03T06:36:41;100836.00;;;10.30
12875;BMP180;6505;51.114;13.128;2023-04-03T06:39:13;100821.00;;;10.20
12875;BMP180;6505;51.114;13.128;2023-04-03T06:41:43;100837.00;;;10.30
12875;BMP180;6505;51.114;13.128;2023-04-03T06:44:11;100849.00;;;10.30
12875;BMP180;6505;51.114;13.128;2023-04-03T06:46:43;100844.00;;;10.30
12875;BMP180;6505;51.114;13.128;2023-04-03T06:49:12;100826.00;;;10.30
12875;BMP180;6505;51.114;13.128;2023-04-03T06:51:41;100852.00;;;10.30
12875;BMP180;6505;51.114;13.128;2023-04-03T06:54:09;100830.00;;;10.30
12875;BMP180;6505;51.114;13.128;2023-04-03T06:56:37;100855.00;;;10.30
12875;BMP180;6505;51.114;13.128;2023-04-03T06:59:07;100852.00;;;10.30
12875;BMP180;6505;51.114;13.128;2023-04-03T07:01:35;100847.00;;;10.30
12875;BMP180;6505;51.114;13.128;2023-04-03T07:04:03;100856.00;;;10.30
12875;BMP180;6505;51.114;13.128;2023-04-03T07:06:32;100860.00;;;10.30
12875;BMP180;6505;51.114;13.128;2023-04-03T07:09:00;100834.00;;;10.30
12875;BMP180;6505;51.114;13.128;2023-04-03T07:11:29;100850.00;;;10.30
12875;BMP180;6505;51.114;13.128;2023-04-03T07:13:57;100856.00;;;10.30
12875;BMP180;6505;51.114;13.128;2023-04-03T07:16:26;100853.00;;;10.30
12875;BMP180;6505;51.114;13.128;2023-04-03T07:18:54;100852.00;;;10.40
12875;BMP180;6505;51.114;13.128;2023-04-03T07:21:22;100868.00;;;10.40
12875;BMP180;6505;51.114;13.128;2023-04-03T07:23:50;100865.00;;;10.40
12875;BMP180;6505;51.114;13.128;2023-04-03T07:26:19;100862.00;;;10.30
12875;BMP180;6505;51.114;13.128;2023-04-03T07:28:47;100864.00;;;10.40
12875;BMP180;6505;51.114;13.128;2023-04-03T07:31:17;100862.00;;;10.30
12875;BMP180;6505;51.114;13.128;2023-04-03T07:33:46;100879.00;;;10.30
12875;BMP180;6505;51.114;13.128;2023-04-03T07:36:18;100876.00;;;10.30
12875;BMP180;6505;51.114;13.128;2023-04-03T07:38:46;100874.00;;;10.40
12875;BMP180;6505;51.114;13.128;2023-04-03T07:41:16;100878.00;;;10.30
12875;BMP180;6505;51.114;13.128;2023-04-03T07:43:45;100878.00;;;10.40
12875;BMP180;6505;51.114;13.128;2023-04-03T07:46:13;100882.00;;;10.30
12875;BMP180;6505;51.114;13.128;2023-04-03T07:48:41;100877.00;;;10.30
12875;BMP180;6505;51.114;13.128;2023-04-03T07:51:10;100879.00;;;10.30
12875;BMP180;6505;51.114;13.128;2023-04-03T07:53:39;100882.00;;;10.30
12875;BMP180;6505;51.114;13.128;2023-04-03T07:56:08;100881.00;;;10.40
12875;BMP180;6505;51.114;13.128;2023-04-03T07:58:36;100882.00;;;10.40
12875;BMP180;6505;51.114;13.128;2023-04-03T08:01:04;100877.00;;;10.40
12875;BMP180;6505;51.114;13.128;2023-04-03T08:03:32;100879.00;;;10.30
12875;BMP180;6505;51.114;13.128;2023-04-03T08:06:04;100881.00;;;10.30
12875;BMP180;6505;51.114;13.128;2023-04-03T08:08:38;100886.00;;;10.30
12875;BMP180;6505;51.114;13.128;2023-04-03T08:11:07;100871.00;;;10.40
12875;BMP180;6505;51.114;13.128;2023-04-03T08:13:35;100871.00;;;10.40
12875;BMP180;6505;51.114;13.128;2023-04-03T08:16:11;100880.00;;;10.40
12875;BMP180;6505;51.114;13.128;2023-04-03T08:18:40;100886.00;;;10.40
12875;BMP180;6505;51.114;13.128;2023-04-03T08:21:10;100877.00;;;10.40
12875;BMP180;6505;51.114;13.128;2023-04-03T08:23:41;100891.00;;;10.40
12875;BMP180;6505;51.114;13.128;2023-04-03T08:26:11;100880.00;;;10.40
12875;BMP180;6505;51.114;13.128;2023-04-03T08:28:40;100866.00;;;10.50
12875;BMP180;6505;51.114;13.128;2023-04-03T08:31:11;100877.00;;;10.40
12875;BMP180;6505;51.114;13.128;2023-04-03T08:33:40;100879.00;;;10.50
12875;BMP180;6505;51.114;13.128;2023-04-03T08:36:18;100882.00;;;10.40
12875;BMP180;6505;51.114;13.128;2023-04-03T08:38:50;100877.00;;;10.50
12875;BMP180;6505;51.114;13.128;2023-04-03T08:41:27;100888.00;;;10.50
12875;BMP180;6505;51.114;13.128;2023-04-03T08:44:13;100887.00;;;10.50
12875;BMP180;6505;51.114;13.128;2023-04-03T08:47:03;100888.00;;;10.60
12875;BMP180;6505;51.114;13.128;2023-04-03T08:49:37;100883.00;;;10.70
12875;BMP180;6505;51.114;13.128;2023-04-03T08:52:11;100883.00;;;10.70
12875;BMP180;6505;51.114;13.128;2023-04-03T08:54:50;100870.00;;;10.80
12875;BMP180;6505;51.114;13.128;2023-04-03T08:57:29;100881.00;;;10.90
12875;BMP180;6505;51.114;13.128;2023-04-03T09:00:01;100888.00;;;10.90
12875;BMP180;6505;51.114;13.128;2023-04-03T09:02:35;100880.00;;;11.00
12875;BMP180;6505;51.114;13.128;2023-04-03T09:05:13;100877.00;;;11.00
12875;BMP180;6505;51.114;13.128;2023-04-03T09:07:46;100885.00;;;11.10
12875;BMP180;6505;51.114;13.128;2023-04-03T09:10:24;100893.00;;;11.10
12875;BMP180;6505;51.114;13.128;2023-04-03T09:13:01;100880.00;;;11.10
12875;BMP180;6505;51.114;13.128;2023-04-03T09:15:31;100891.00;;;11.10
12875;BMP180;6505;51.114;13.128;2023-04-03T09:18:13;100886.00;;;11.10
12875;BMP180;6505;51.114;13.128;2023-04-03T09:20:49;100904.00;;;11.10
12875;BMP180;6505;51.114;13.128;2023-04-03T09:23:27;100901.00;;;11.10
12875;BMP180;6505;51.114;13.128;2023-04-03T09:26:03;100904.00;;;11.10
12875;BMP180;6505;51.114;13.128;2023-04-03T09:28:38;100903.00;;;11.10
12875;BMP180;6505;51.114;13.128;2023-04-03T09:31:23;100895.00;;;11.10
12875;BMP180;6505;51.114;13.128;2023-04-03T09:33:56;100901.00;;;11.10
12875;BMP180;6505;51.114;13.128;2023-04-03T09:36:40;100890.00;;;11.10
12875;BMP180;6505;51.114;13.128;2023-04-03T09:39:13;100899.00;;;11.10
12875;BMP180;6505;51.114;13.128;2023-04-03T09:41:57;100899.00;;;11.10
12875;BMP180;6505;51.114;13.128;2023-04-03T09:44:29;100896.00;;;11.20
12875;BMP180;6505;51.114;13.128;2023-04-03T09:46:58;100896.00;;;11.20
12875;BMP180;6505;51.114;13.128;2023-04-03T09:49:26;100887.00;;;11.20
12875;BMP180;6505;51.114;13.128;2023-04-03T09:51:54;100890.00;;;11.20
12875;BMP180;6505;51.114;13.128;2023-04-03T09:54:35;100885.00;;;11.20
12875;BMP180;6505;51.114;13.128;2023-04-03T09:57:12;100884.00;;;11.20
12875;BMP180;6505;51.114;13.128;2023-04-03T09:59:46;100895.00;;;11.20
12875;BMP180;6505;51.114;13.128;2023-04-03T10:02:33;100881.00;;;11.20
12875;BMP180;6505;51.114;13.128;2023-04-03T10:05:03;100875.00;;;11.20
12875;BMP180;6505;51.114;13.128;2023-04-03T10:07:37;100884.00;;;11.20
12875;BMP180;6505;51.114;13.128;2023-04-03T10:10:22;100875.00;;;11.20
12875;BMP180;6505;51.114;13.128;2023-04-03T10:13:09;100868.00;;;11.20
12875;BMP180;6505;51.114;13.128;2023-04-03T10:15:51;100893.00;;;11.20
12875;BMP180;6505;51.114;13.128;2023-04-03T10:18:33;100880.00;;;11.30
12875;BMP180;6505;51.114;13.128;2023-04-03T10:21:10;100886.00;;;11.30
12875;BMP180;6505;51.114;13.128;2023-04-03T10:24:01;100870.00;;;11.30
12875;BMP180;6505;51.114;13.128;2023-04-03T10:26:41;100874.00;;;11.20
12875;BMP180;6505;51.114;13.128;2023-04-03T10:29:36;100871.00;;;11.30
12875;BMP180;6505;51.114;13.128;2023-04-03T10:32:38;100862.00;;;11.30
12875;BMP180;6505;51.114;13.128;2023-04-03T10:35:22;100877.00;;;11.30
12875;BMP180;6505;51.114;13.128;2023-04-03T10:38:04;100875.00;;;11.30
12875;BMP180;6505;51.114;13.128;2023-04-03T10:40:44;100880.00;;;11.30
12875;BMP180;6505;51.114;13.128;2023-04-03T10:43:29;100877.00;;;11.30
12875;BMP180;6505;51.114;13.128;2023-04-03T10:46:09;100874.00;;;11.30
12875;BMP180;6505;51.114;13.128;2023-04-03T10:49:01;100866.00;;;11.30
12875;BMP180;6505;51.114;13.128;2023-04-03T10:51:41;100867.00;;;11.40
12875;BMP180;6505;51.114;13.128;2023-04-03T10:54:14;100882.00;;;11.40
12875;BMP180;6505;51.114;13.128;2023-04-03T10:56:50;100862.00;;;11.40
12875;BMP180;6505;51.114;13.128;2023-04-03T10:59:41;100858.00;;;11.40
12875;BMP180;6505;51.114;13.128;2023-04-03T11:02:20;100860.00;;;11.40
12875;BMP180;6505;51.114;13.128;2023-04-03T11:04:55;100856.00;;;11.40
12875;BMP180;6505;51.114;13.128;2023-04-03T11:07:28;100851.00;;;11.50
12875;BMP180;6505;51.114;13.128;2023-04-03T11:10:03;100828.00;;;11.50
12875;BMP180;6505;51.114;13.128;2023-04-03T11:12:41;100834.00;;;11.50
12875;BMP180;6505;51.114;13.128;2023-04-03T11:15:15;100847.00;;;11.50
12875;BMP180;6505;51.114;13.128;2023-04-03T11:17:51;100855.00;;;11.50
12875;BMP180;6505;51.114;13.128;2023-04-03T11:20:26;100844.00;;;11.50
12875;BMP180;6505;51.114;13.128;2023-04-03T11:23:04;100838.00;;;11.50
12875;BMP180;6505;51.114;13.128;2023-04-03T11:25:36;100848.00;;;11.60
12875;BMP180;6505;51.114;13.128;2023-04-03T11:28:12;100839.00;;;11.60
12875;BMP180;6505;51.114;13.128;2023-04-03T11:30:49;100852.00;;;11.60
12875;BMP180;6505;51.114;13.128;2023-04-03T11:33:37;100847.00;;;11.60
12875;BMP180;6505;51.114;13.128;2023-04-03T11:36:13;100835.00;;;11.60
12875;BMP180;6505;51.114;13.128;2023-04-03T11:38:55;100825.00;;;11.60
12875;BMP180;6505;51.114;13.128;2023-04-03T11:41:28;100839.00;;;11.60
12875;BMP180;6505;51.114;13.128;2023-04-03T11:44:00;100825.00;;;11.60
12875;BMP180;6505;51.114;13.128;2023-04-03T11:46:55;100830.00;;;11.60
12875;BMP180;6505;51.114;13.128;2023-04-03T11:49:57;100825.00;;;11.60
12875;BMP180;6505;51.114;13.128;2023-04-03T11:53:00;100834.00;;;11.60
12875;BMP180;6505;51.114;13.128;2023-04-03T11:55:53;100838.00;;;11.60
12875;BMP180;6505;51.114;13.128;2023-04-03T11:58:24;100839.00;;;11.60
12875;BMP180;6505;51.114;13.128;2023-04-03T12:01:02;100823.00;;;11.60
12875;BMP180;6505;51.114;13.128;2023-04-03T12:04:08;100822.00;;;11.60
12875;BMP180;6505;51.114;13.128;2023-04-03T12:07:15;100827.00;;;11.60
12875;BMP180;6505;51.114;13.128;2023-04-03T12:10:17;100827.00;;;11.60
12875;BMP180;6505;51.114;13.128;2023-04-03T12:13:00;100815.00;;;11.70
12875;BMP180;6505;51.114;13.128;2023-04-03T12:15:54;100813.00;;;11.70
12875;BMP180;6505;51.114;13.128;2023-04-03T12:19:00;100812.00;;;11.70
12875;BMP180;6505;51.114;13.128;2023-04-03T12:22:11;100817.00;;;11.70
12875;BMP180;6505;51.114;13.128;2023-04-03T12:24:41;100815.00;;;11.70
12875;BMP180;6505;51.114;13.128;2023-04-03T12:27:34;100810.00;;;11.70
12875;BMP180;6505;51.114;13.128;2023-04-03T12:30:22;100797.00;;;11.70
12875;BMP180;6505;51.114;13.128;2023-04-03T12:33:26;100808.00;;;11.70
12875;BMP180;6505;51.114;13.128;2023-04-03T12:36:08;100803.00;;;11.70
12875;BMP180;6505;51.114;13.128;2023-04-03T12:39:02;100797.00;;;11.70
12875;BMP180;6505;51.114;13.128;2023-04-03T12:41:49;100801.00;;;11.70
12875;BMP180;6505;51.114;13.128;2023-04-03T12:44:42;100798.00;;;11.60
12875;BMP180;6505;51.114;13.128;2023-04-03T12:47:24;100787.00;;;11.70
12875;BMP180;6505;51.114;13.128;2023-04-03T12:49:53;100793.00;;;11.80
12875;BMP180;6505;51.114;13.128;2023-04-03T12:52:32;100792.00;;;11.70
12875;BMP180;6505;51.114;13.128;2023-04-03T12:55:03;100785.00;;;11.80
12875;BMP180;6505;51.114;13.128;2023-04-03T12:57:38;100793.00;;;11.80
12875;BMP180;6505;51.114;13.128;2023-04-03T13:00:28;100793.00;;;11.80
12875;BMP180;6505;51.114;13.128;2023-04-03T13:02:56;100789.00;;;11.90
12875;BMP180;6505;51.114;13.128;2023-04-03T13:05:25;100793.00;;;11.90
12875;BMP180;6505;51.114;13.128;2023-04-03T13:07:59;100806.00;;;11.90
12875;BMP180;6505;51.114;13.128;2023-04-03T13:10:29;100806.00;;;12.00
12875;BMP180;6505;51.114;13.128;2023-04-03T13:13:08;100797.00;;;11.90
12875;BMP180;6505;51.114;13.128;2023-04-03T13:15:42;100776.00;;;11.90
12875;BMP180;6505;51.114;13.128;2023-04-03T13:18:28;100795.00;;;11.90
12875;BMP180;6505;51.114;13.128;2023-04-03T13:21:03;100797.00;;;11.90
12875;BMP180;6505;51.114;13.128;2023-04-03T13:23:34;100799.00;;;11.90
12875;BMP180;6505;51.114;13.128;2023-04-03T13:26:05;100791.00;;;11.90
12875;BMP180;6505;51.114;13.128;2023-04-03T13:28:36;100814.00;;;11.90
12875;BMP180;6505;51.114;13.128;2023-04-03T13:31:19;100795.00;;;11.90
12875;BMP180;6505;51.114;13.128;2023-04-03T13:33:56;100794.00;;;11.90
12875;BMP180;6505;51.114;13.128;2023-04-03T13:36:29;100795.00;;;11.90
12875;BMP180;6505;51.114;13.128;2023-04-03T13:39:02;100792.00;;;11.90
12875;BMP180;6505;51.114;13.128;2023-04-03T13:41:34;100795.00;;;11.90
12875;BMP180;6505;51.114;13.128;2023-04-03T13:44:27;100785.00;;;11.90
12875;BMP180;6505;51.114;13.128;2023-04-03T13:46:58;100787.00;;;11.90
12875;BMP180;6505;51.114;13.128;2023-04-03T13:49:33;100779.00;;;11.90
12875;BMP180;6505;51.114;13.128;2023-04-03T13:52:22;100785.00;;;11.90
12875;BMP180;6505;51.114;13.128;2023-04-03T13:54:55;100783.00;;;11.90
12875;BMP180;6505;51.114;13.128;2023-04-03T13:57:24;100792.00;;;12.00
12875;BMP180;6505;51.114;13.128;2023-04-03T13:59:54;100787.00;;;11.90
12875;BMP180;6505;51.114;13.128;2023-04-03T14:02:31;100776.00;;;11.90
12875;BMP180;6505;51.114;13.128;2023-04-03T14:05:02;100786.00;;;11.90
12875;BMP180;6505;51.114;13.128;2023-04-03T14:07:34;100795.00;;;12.00
12875;BMP180;6505;51.114;13.128;2023-04-03T14:10:06;100782.00;;;11.90
12875;BMP180;6505;51.114;13.128;2023-04-03T14:12:36;100782.00;;;11.90
12875;BMP180;6505;51.114;13.128;2023-04-03T14:15:18;100779.00;;;11.90
12875;BMP180;6505;51.114;13.128;2023-04-03T14:17:47;100789.00;;;11.90
12875;BMP180;6505;51.114;13.128;2023-04-03T14:20:19;100799.00;;;11.90
12875;BMP180;6505;51.114;13.128;2023-04-03T14:22:49;100802.00;;;11.90
12875;BMP180;6505;51.114;13.128;2023-04-03T14:25:18;100806.00;;;11.90
12875;BMP180;6505;51.114;13.128;2023-04-03T14:27:49;100790.00;;;11.90
12875;BMP180;6505;51.114;13.128;2023-04-03T14:30:23;100796.00;;;11.90
12875;BMP180;6505;51.114;13.128;2023-04-03T14:32:51;100794.00;;;11.90